Time;durP1;ratioP1;P1;durP2;ratioP2;P2;SDS_P1;SDS_P2;PMS_P1;PMS_P2;Temp;Humidity;BMP_temperature;BMP_pressure;BME280_temperature;BME280_humidity;BME280_pressure;Samples;Min_cycle;Max_cycle;Signal;HPM_P1;HPM_P2
2022/07/19 00:02:34;;;;;;;7.20;1.48;;;;;;;18.73;52.90;100950.56;5589384;31;34535;-67
2022/07/19 00:05:37;;;;;;;5.47;1.42;;;;;;;18.70;54.26;100950.13;5589390;31;34112;-67
2022/07/19 00:08:40;;;;;;;2.83;1.30;;;;;;;18.63;55.70;100952.84;5589344;31;34598;-67
2022/07/19 00:11:43;;;;;;;4.30;1.75;;;;;;;18.56;56.07;100944.75;5588242;31;34570;-67
2022/07/19 00:14:45;;;;;;;4.10;1.58;;;;;;;18.54;56.16;100954.88;5588760;31;33269;-67
2022/07/19 00:17:49;;;;;;;7.30;1.40;;;;;;;18.54;57.23;100951.38;5589389;31;35141;-67
2022/07/19 00:20:51;;;;;;;2.28;1.17;;;;;;;18.48;56.93;100952.16;5589286;31;34087;-67
2022/07/19 00:23:54;;;;;;;3.25;1.23;;;;;;;18.46;57.63;100955.06;5589403;31;33914;-67
2022/07/19 00:26:57;;;;;;;7.97;1.77;;;;;;;18.39;56.85;100945.34;5589142;31;33966;-67
2022/07/19 00:30:00;;;;;;;5.10;1.65;;;;;;;18.30;56.29;100954.63;5589510;31;34737;-67
2022/07/19 00:33:04;;;;;;;4.22;1.50;;;;;;;18.23;55.82;100952.75;5589130;31;34280;-67
2022/07/19 00:36:07;;;;;;;6.28;1.73;;;;;;;18.17;55.99;100952.72;5589134;31;34592;-67
2022/07/19 00:39:09;;;;;;;4.28;1.40;;;;;;;18.11;56.89;100953.53;5588475;31;34689;-67
2022/07/19 00:42:14;;;;;;;4.30;1.45;;;;;;;18.07;56.84;100949.59;5588323;31;33939;-67
2022/07/19 00:45:17;;;;;;;2.72;1.30;;;;;;;18.01;56.29;100953.13;5588932;31;33913;-67
2022/07/19 00:48:20;;;;;;;4.55;1.30;;;;;;;17.97;56.14;100952.66;5588900;31;34287;-67
2022/07/19 00:51:22;;;;;;;4.43;1.40;;;;;;;17.97;56.30;100951.84;5589188;31;34054;-67
2022/07/19 00:54:27;;;;;;;2.20;1.30;;;;;;;18.30;54.91;100950.06;5588965;31;34659;-67
2022/07/19 00:57:31;;;;;;;2.78;1.00;;;;;;;18.52;52.87;100956.91;5588922;31;33940;-67
2022/07/19 01:00:35;;;;;;;2.00;1.08;;;;;;;18.60;51.17;100953.22;5587998;31;33958;-67
2022/07/19 01:03:40;;;;;;;2.35;0.90;;;;;;;18.78;50.28;100949.94;5588940;31;34558;-67
2022/07/19 01:06:43;;;;;;;1.55;0.90;;;;;;;18.67;49.70;100951.38;5588570;31;34198;-67
2022/07/19 01:09:47;;;;;;;2.72;1.30;;;;;;;18.58;49.88;100947.25;5587816;31;34072;-67
2022/07/19 01:12:50;;;;;;;3.17;1.10;;;;;;;18.52;50.35;100950.72;5588537;31;34062;-67
2022/07/19 01:15:53;;;;;;;2.62;1.08;;;;;;;18.45;50.61;100941.81;5588500;31;34269;-67
2022/07/19 01:18:56;;;;;;;2.50;0.95;;;;;;;18.30;50.22;100942.00;5588500;31;34272;-67
2022/07/19 01:21:59;;;;;;;4.00;1.23;;;;;;;18.12;50.82;100939.09;5589288;31;33923;-67
2022/07/19 01:25:02;;;;;;;4.30;1.27;;;;;;;17.98;51.18;100942.75;5590880;31;34441;-67
2022/07/19 01:28:06;;;;;;;1.95;1.15;;;;;;;17.90;51.48;100949.16;5591203;31;34568;-67
2022/07/19 01:31:10;;;;;;;3.33;1.30;;;;;;;17.83;51.96;100948.28;5577024;31;32287;-67
2022/07/19 01:34:12;;;;;;;7.07;1.33;;;;;;;17.75;52.19;100940.44;5590219;31;34213;-67
2022/07/19 01:37:15;;;;;;;2.08;1.25;;;;;;;17.66;52.90;100944.31;5590081;31;32892;-67
2022/07/19 01:40:19;;;;;;;1.40;0.90;;;;;;;17.51;53.13;100927.50;5590764;31;34120;-67
2022/07/19 01:43:21;;;;;;;2.45;1.00;;;;;;;17.44;53.16;100938.19;5590744;31;34620;-67
2022/07/19 01:46:24;;;;;;;3.62;1.20;;;;;;;17.35;53.31;100925.97;5590647;31;33928;-67
2022/07/19 01:49:27;;;;;;;5.68;1.10;;;;;;;17.28;53.55;100933.97;5590801;31;34382;-67
2022/07/19 01:52:30;;;;;;;2.22;1.20;;;;;;;17.25;54.11;100929.00;5590611;31;33945;-67
2022/07/19 01:55:33;;;;;;;2.97;1.30;;;;;;;17.24;54.28;100940.75;5589836;31;33797;-67
2022/07/19 01:58:36;;;;;;;2.45;1.25;;;;;;;17.16;54.97;100938.25;5590542;31;34775;-67
2022/07/19 02:01:38;;;;;;;2.92;1.02;;;;;;;17.07;56.34;100933.22;5590679;31;34024;-67
2022/07/19 02:04:41;;;;;;;3.35;1.10;;;;;;;17.05;55.87;100935.28;5590396;31;34481;-67
2022/07/19 02:07:44;;;;;;;3.65;1.10;;;;;;;17.16;56.46;100937.41;5590430;31;34554;-67
2022/07/19 02:10:47;;;;;;;4.55;1.77;;;;;;;17.30;56.14;100937.28;5590554;31;34661;-67
2022/07/19 02:13:50;;;;;;;3.60;1.00;;;;;;;17.35;56.28;100939.38;5590474;31;34557;-67
2022/07/19 02:16:53;;;;;;;6.22;1.45;;;;;;;17.24;56.50;100947.97;5590651;31;34062;-67
2022/07/19 02:19:56;;;;;;;7.50;1.45;;;;;;;17.16;57.05;100950.81;5590401;31;34603;-67
2022/07/19 02:22:59;;;;;;;13.43;1.95;;;;;;;17.01;58.62;100948.25;5590388;31;33565;-67
2022/07/19 02:26:02;;;;;;;2.70;1.40;;;;;;;16.93;60.39;100951.91;5590338;31;33933;-67
2022/07/19 02:29:05;;;;;;;1.80;1.20;;;;;;;16.82;59.71;100947.09;5590413;31;34017;-67
2022/07/19 02:32:08;;;;;;;2.50;1.40;;;;;;;16.79;59.61;100958.19;5586681;31;113303;-67
2022/07/19 02:35:12;;;;;;;4.12;1.17;;;;;;;16.76;59.96;100963.09;5588535;31;32668;-66
2022/07/19 02:38:15;;;;;;;4.65;1.10;;;;;;;17.03;60.49;100954.25;5589384;31;32742;-67
2022/07/19 02:41:18;;;;;;;3.83;1.37;;;;;;;16.99;60.81;100944.94;5589517;31;33912;-68
2022/07/19 02:44:20;;;;;;;3.92;1.35;;;;;;;17.00;61.98;100953.78;5590246;31;34636;-68
2022/07/19 02:47:24;;;;;;;3.47;1.30;;;;;;;16.96;62.07;100966.75;5589288;31;33991;-67
2022/07/19 02:50:26;;;;;;;5.03;1.17;;;;;;;16.90;62.37;100959.50;5590168;31;34668;-67
2022/07/19 02:53:29;;;;;;;2.12;1.30;;;;;;;16.91;63.55;100953.94;5590216;31;34660;-67
2022/07/19 02:56:32;;;;;;;4.60;1.30;;;;;;;16.93;63.83;100954.59;5590191;31;33914;-67
2022/07/19 02:59:34;;;;;;;3.03;1.20;;;;;;;16.99;63.78;100954.84;5590239;31;34108;-67
2022/07/19 03:02:37;;;;;;;3.33;1.15;;;;;;;16.93;64.14;100957.28;5590092;31;34642;-67
2022/07/19 03:05:40;;;;;;;2.87;1.30;;;;;;;16.97;64.40;100960.38;5590236;31;34249;-67
2022/07/19 03:08:44;;;;;;;2.67;1.37;;;;;;;17.08;64.28;100972.44;5589129;31;35172;-67
2022/07/19 03:11:47;;;;;;;4.40;1.17;;;;;;;17.11;63.96;100966.66;5589958;31;34174;-67
2022/07/19 03:14:50;;;;;;;1.90;1.20;;;;;;;17.08;64.98;100972.44;5590039;31;33929;-67
2022/07/19 03:17:52;;;;;;;4.87;1.30;;;;;;;16.98;65.93;100971.94;5590055;31;34673;-67
2022/07/19 03:20:55;;;;;;;2.78;1.23;;;;;;;16.91;66.12;100974.56;5589024;31;34602;-67
2022/07/19 03:23:58;;;;;;;5.78;1.35;;;;;;;16.87;66.54;100971.44;5589898;31;34242;-66
2022/07/19 03:27:00;;;;;;;3.35;1.48;;;;;;;16.76;67.63;100971.97;5589706;31;34031;-67
2022/07/19 03:30:04;;;;;;;3.85;1.60;;;;;;;16.74;67.78;100975.87;5590091;31;34041;-66
2022/07/19 03:33:07;;;;;;;4.32;1.35;;;;;;;16.78;67.75;100979.81;5588814;31;34042;-67
2022/07/19 03:36:10;;;;;;;3.30;1.55;;;;;;;16.77;68.27;100978.16;5589999;31;34648;-67
2022/07/19 03:39:13;;;;;;;7.10;1.50;;;;;;;16.72;68.30;100978.75;5588956;31;34323;-67
2022/07/19 03:42:16;;;;;;;3.20;1.33;;;;;;;16.70;68.05;100990.69;5589707;31;33981;-67
2022/07/19 03:45:19;;;;;;;3.97;1.45;;;;;;;16.68;67.91;100985.50;5589412;31;33641;-67
2022/07/19 03:48:21;;;;;;;5.78;1.17;;;;;;;16.76;68.19;100988.03;5588837;31;32727;-66
2022/07/19 03:51:24;;;;;;;4.45;1.15;;;;;;;16.93;66.27;100988.59;5589613;31;34694;-66
2022/07/19 03:54:27;;;;;;;2.70;1.30;;;;;;;17.02;64.84;100991.97;5589538;31;34388;-65
2022/07/19 03:57:30;;;;;;;2.80;1.17;;;;;;;17.12;64.64;101000.50;5589642;31;33978;-66
2022/07/19 04:00:33;;;;;;;2.60;1.10;;;;;;;17.18;64.53;101011.28;5589594;31;35297;-66
2022/07/19 04:03:39;;;;;;;4.28;1.20;;;;;;;17.24;64.56;101013.16;5589548;31;34053;-65
2022/07/19 04:06:42;;;;;;;3.60;1.20;;;;;;;17.25;64.32;101014.00;5589350;31;34142;-66
2022/07/19 04:09:45;;;;;;;4.28;1.25;;;;;;;17.28;63.57;101005.56;5588212;31;33993;-66
2022/07/19 04:12:48;;;;;;;2.80;1.30;;;;;;;17.34;63.07;101005.59;5589439;31;34679;-66
2022/07/19 04:15:51;;;;;;;5.62;1.40;;;;;;;17.38;62.36;101012.22;5589401;31;34469;-67
2022/07/19 04:18:53;;;;;;;2.87;1.20;;;;;;;17.47;62.42;101007.56;5589317;31;34118;-67
2022/07/19 04:21:56;;;;;;;2.70;0.98;;;;;;;17.63;61.81;101017.16;5588588;31;34113;-67
2022/07/19 04:24:59;;;;;;;5.28;1.20;;;;;;;17.69;62.11;101011.00;5589272;31;34583;-67
2022/07/19 04:28:03;;;;;;;3.62;1.20;;;;;;;17.75;62.20;101018.25;5589179;31;34114;-66
2022/07/19 04:31:06;;;;;;;5.12;1.50;;;;;;;17.85;61.77;101021.41;5589462;31;34385;-68
2022/07/19 04:34:09;;;;;;;3.20;1.17;;;;;;;17.97;61.21;101035.06;5588091;31;32570;-69
2022/07/19 04:37:11;;;;;;;2.65;1.30;;;;;;;17.98;61.41;101028.69;5588888;31;34885;-69
2022/07/19 04:40:14;;;;;;;2.95;1.33;;;;;;;18.07;61.23;101025.62;5588770;31;33933;-69
2022/07/19 04:43:17;;;;;;;4.37;1.33;;;;;;;18.14;62.22;101023.78;5588141;31;34063;-69
2022/07/19 04:46:23;;;;;;;4.50;1.20;;;;;;;18.27;62.01;101028.38;5588974;31;33958;-69
2022/07/19 04:49:26;;;;;;;3.22;1.10;;;;;;;18.27;61.45;101020.31;5589226;31;34617;-69
2022/07/19 04:52:29;;;;;;;3.42;1.15;;;;;;;18.33;61.63;101024.88;5588104;31;33175;-69
2022/07/19 04:55:32;;;;;;;2.80;1.20;;;;;;;18.49;61.09;101012.94;5588520;31;34045;-69
2022/07/19 04:58:35;;;;;;;5.93;1.15;;;;;;;18.63;58.33;101015.47;5588131;31;34020;-68
2022/07/19 05:01:37;;;;;;;1.80;1.00;;;;;;;18.72;57.46;101017.94;5588678;31;34021;-68
2022/07/19 05:04:41;;;;;;;6.15;1.40;;;;;;;18.80;57.01;101018.56;5588533;31;34645;-68
2022/07/19 05:07:44;;;;;;;4.37;1.23;;;;;;;18.92;56.56;101016.13;5588249;31;34847;-68
2022/07/19 05:10:46;;;;;;;5.80;1.45;;;;;;;19.03;54.90;101019.00;5587314;31;34637;-68
2022/07/19 05:13:49;;;;;;;3.50;1.27;;;;;;;19.09;54.48;101025.41;5588210;31;33992;-69
2022/07/19 05:16:52;;;;;;;3.53;1.15;;;;;;;19.28;54.83;101027.25;5588220;31;34016;-67
2022/07/19 05:19:54;;;;;;;1.50;1.05;;;;;;;19.27;51.39;101022.91;5588478;31;34002;-69
2022/07/19 05:22:57;;;;;;;4.18;1.12;;;;;;;19.41;49.77;101029.91;5588499;31;34778;-68
2022/07/19 05:26:00;;;;;;;1.98;1.00;;;;;;;19.50;50.44;101025.19;5587877;31;33970;-69
2022/07/19 05:29:03;;;;;;;2.97;1.10;;;;;;;19.53;49.71;101022.91;5588124;31;33993;-67
2022/07/19 05:32:06;;;;;;;3.75;1.40;;;;;;;19.60;50.22;101014.00;5586967;31;33872;-68
2022/07/19 05:35:09;;;;;;;1.05;0.90;;;;;;;19.62;50.34;101019.97;5586980;31;32675;-68
2022/07/19 05:38:12;;;;;;;2.55;1.17;;;;;;;19.72;49.86;101018.50;5586671;31;32739;-68
2022/07/19 05:41:16;;;;;;;4.85;1.10;;;;;;;19.73;49.81;101017.47;5587472;31;34618;-68
2022/07/19 05:44:25;;;;;;;3.55;1.12;;;;;;;19.91;49.23;101022.16;5586973;31;34040;-68
2022/07/19 05:47:28;;;;;;;3.50;1.10;;;;;;;20.04;48.08;101008.66;5573504;31;32700;-67
2022/07/19 05:50:31;;;;;;;7.10;1.15;;;;;;;20.21;47.60;101020.56;5586492;31;34615;-69
2022/07/19 05:53:36;;;;;;;4.10;1.30;;;;;;;20.32;46.99;101016.41;5587707;31;34646;-67
2022/07/19 05:56:38;;;;;;;4.68;0.88;;;;;;;20.44;46.61;101016.53;5587102;31;34823;-67
2022/07/19 05:59:41;;;;;;;3.47;1.30;;;;;;;20.66;45.03;101015.16;5587136;31;34453;-67
2022/07/19 06:02:44;;;;;;;4.57;1.25;;;;;;;20.77;44.70;101014.44;5587578;31;33924;-69
2022/07/19 06:05:47;;;;;;;2.50;1.45;;;;;;;20.96;45.36;101012.66;5586761;31;34579;-67
2022/07/19 06:08:50;;;;;;;3.92;1.50;;;;;;;21.14;45.81;101016.25;5587851;31;34175;-68
2022/07/19 06:11:53;;;;;;;3.40;1.33;;;;;;;21.30;46.35;101014.81;5590715;31;33953;-66
2022/07/19 06:14:55;;;;;;;4.93;1.33;;;;;;;21.24;46.73;101019.25;5590316;31;34354;-67
2022/07/19 06:17:58;;;;;;;9.98;1.87;;;;;;;21.37;46.58;101020.16;5589638;31;34142;-67
2022/07/19 06:21:11;;;;;;;2.87;1.17;;;;;;;21.41;46.44;101016.81;5590037;31;33986;-67
2022/07/19 06:24:14;;;;;;;2.85;1.20;;;;;;;21.40;46.69;101028.62;5590012;31;33974;-68
2022/07/19 06:27:17;;;;;;;3.72;1.20;;;;;;;21.49;46.08;101024.63;5588998;31;34635;-67
2022/07/19 06:30:20;;;;;;;4.55;1.52;;;;;;;21.38;45.66;101019.13;5589604;31;33956;-67
2022/07/19 06:33:22;;;;;;;5.03;1.50;;;;;;;21.46;45.55;101016.97;5589682;31;34067;-67
2022/07/19 06:36:26;;;;;;;4.18;1.35;;;;;;;21.66;44.86;101022.97;5589216;31;33859;-67
2022/07/19 06:39:29;;;;;;;3.87;1.15;;;;;;;21.78;44.95;101019.53;5589843;31;34108;-68
2022/07/19 06:42:32;;;;;;;4.97;1.33;;;;;;;21.97;44.95;101027.44;5589893;31;34678;-67
2022/07/19 06:45:35;;;;;;;2.72;1.23;;;;;;;22.06;43.68;101019.84;5590407;31;34906;-67
2022/07/19 06:48:38;;;;;;;3.97;1.23;;;;;;;22.27;44.43;101022.03;5589158;31;34341;-66
2022/07/19 06:51:41;;;;;;;13.18;1.23;;;;;;;22.42;41.99;101022.44;5589367;31;32309;-67
2022/07/19 06:54:44;;;;;;;2.20;1.20;;;;;;;22.52;41.42;101019.19;5589545;31;33945;-67
2022/07/19 06:57:46;;;;;;;5.45;1.30;;;;;;;22.79;40.78;101012.38;5589700;31;34820;-67
2022/07/19 07:00:51;;;;;;;8.13;1.62;;;;;;;23.10;40.29;101008.50;5589731;31;34306;-68
2022/07/19 07:03:54;;;;;;;4.35;1.48;;;;;;;23.39;40.61;101007.56;5590016;31;34520;-67
2022/07/19 07:06:57;;;;;;;3.72;1.35;;;;;;;23.59;40.01;101009.91;5588742;31;32988;-67
2022/07/19 07:10:03;;;;;;;7.25;1.50;;;;;;;23.80;39.36;101016.59;5589299;31;34583;-67
2022/07/19 07:13:12;;;;;;;6.45;1.45;;;;;;;24.21;38.59;100999.28;5589426;31;34619;-68
2022/07/19 07:16:14;;;;;;;5.35;1.30;;;;;;;24.44;38.14;101007.31;5575721;31;32871;-67
2022/07/19 07:19:17;;;;;;;4.22;1.40;;;;;;;24.70;36.52;101003.16;5588840;31;34348;-67
2022/07/19 07:22:20;;;;;;;3.65;1.20;;;;;;;25.04;35.69;101002.09;5589378;31;34622;-67
2022/07/19 07:25:23;;;;;;;3.50;1.15;;;;;;;25.44;35.39;100999.19;5588930;31;35188;-68
2022/07/19 07:28:26;;;;;;;5.18;1.12;;;;;;;25.63;34.90;101002.44;5589550;31;34598;-68
2022/07/19 07:31:28;;;;;;;3.75;1.23;;;;;;;26.04;35.13;101000.22;5589559;31;34674;-68
2022/07/19 07:34:31;;;;;;;6.97;1.08;;;;;;;26.36;34.73;100988.38;5588533;31;32884;-67
2022/07/19 07:37:39;;;;;;;7.75;1.23;;;;;;;27.04;32.37;100994.13;5589372;31;34446;-67
2022/07/19 07:40:42;;;;;;;5.12;1.30;;;;;;;27.68;31.07;100994.81;5589398;31;34184;-68
2022/07/19 07:43:44;;;;;;;5.30;1.10;;;;;;;28.15;29.63;100993.91;5575793;31;32935;-67
2022/07/19 07:46:47;;;;;;;3.83;1.10;;;;;;;29.54;27.74;100987.06;5589229;31;33945;-68
2022/07/19 07:49:50;;;;;;;2.15;1.52;;;;;;;30.05;26.84;100990.44;5587937;31;33970;-68
2022/07/19 07:52:53;;;;;;;9.52;1.02;;;;;;;30.29;26.46;100999.59;5588585;31;33128;-67
2022/07/19 07:55:55;;;;;;;7.32;1.20;;;;;;;30.41;25.92;100994.56;5588664;31;33308;-68
2022/07/19 07:59:04;;;;;;;5.57;1.17;;;;;;;31.00;25.00;100997.13;5588654;31;35172;-68
2022/07/19 08:02:07;;;;;;;4.65;1.10;;;;;;;31.50;23.69;100987.59;5589392;31;34636;-69
2022/07/19 08:05:11;;;;;;;10.90;1.35;;;;;;;32.03;23.44;100986.69;5589326;31;34325;-68
2022/07/19 08:08:14;;;;;;;2.95;1.00;;;;;;;32.50;23.22;100983.78;5588975;31;34234;-67
2022/07/19 08:11:18;;;;;;;5.87;1.33;;;;;;;33.27;21.37;100988.81;5589100;31;35222;-68
2022/07/19 08:14:21;;;;;;;4.28;1.20;;;;;;;33.70;20.92;100989.34;5589310;31;33886;-69
2022/07/19 08:17:24;;;;;;;6.75;1.35;;;;;;;34.20;20.64;100984.69;5589195;31;34630;-68
2022/07/19 08:20:27;;;;;;;6.20;1.58;;;;;;;34.01;20.54;100985.66;5588809;31;32685;-68
2022/07/19 08:23:30;;;;;;;2.55;1.15;;;;;;;34.62;19.51;100984.22;5589246;31;33901;-68
2022/07/19 08:26:33;;;;;;;4.45;1.62;;;;;;;34.43;19.95;100980.84;5588324;31;32944;-68
2022/07/19 08:29:36;;;;;;;4.90;1.37;;;;;;;35.16;19.43;100983.09;5588371;31;33368;-68
2022/07/19 08:32:40;;;;;;;12.57;1.52;;;;;;;35.57;17.82;100988.34;5587493;31;34033;-69
2022/07/19 08:35:42;;;;;;;12.05;1.20;;;;;;;36.15;18.57;100985.25;5588297;31;32527;-68
2022/07/19 08:38:46;;;;;;;2.45;0.70;;;;;;;35.41;18.67;100983.56;5588306;31;34701;-69
2022/07/19 08:41:49;;;;;;;1.17;0.52;;;;;;;35.04;17.81;100982.09;5587852;31;32993;-69
2022/07/19 08:44:53;;;;;;;1.35;0.88;;;;;;;36.30;16.03;100980.38;5588740;31;34614;-68
2022/07/19 08:48:00;;;;;;;1.45;0.65;;;;;;;36.41;16.50;100967.84;5588765;31;34046;-68
2022/07/19 08:51:04;;;;;;;0.80;0.55;;;;;;;37.25;15.74;100965.22;5588055;31;34018;-69
2022/07/19 08:54:07;;;;;;;1.83;1.05;;;;;;;37.98;14.62;100965.78;5588515;31;34651;-67
2022/07/19 09:00:34;;;;;;;2.78;0.80;;;;;;;36.95;15.89;100961.56;5588621;31;34052;-68
2022/07/19 09:03:37;;;;;;;3.85;0.75;;;;;;;35.34;17.41;100969.44;5587599;31;32389;-68
2022/07/19 09:06:46;;;;;;;2.40;0.80;;;;;;;36.78;17.05;100953.34;5588350;31;33497;-69
2022/07/19 09:09:49;;;;;;;3.50;0.98;;;;;;;37.23;16.05;100953.66;5588310;31;33949;-69
2022/07/19 09:13:13;;;;;;;4.68;0.80;;;;;;;38.19;15.21;100960.28;5588302;31;34500;-68
2022/07/19 09:16:15;;;;;;;1.92;0.50;;;;;;;38.63;14.97;100959.53;5587825;31;34783;-69
2022/07/19 09:19:19;;;;;;;2.80;0.75;;;;;;;38.75;14.16;100955.19;5588291;31;34310;-68
2022/07/19 09:22:22;;;;;;;1.08;0.70;;;;;;;38.74;14.37;100948.81;5587773;31;34545;-67
2022/07/19 09:25:37;;;;;;;0.88;0.60;;;;;;;36.38;16.75;100946.38;5588133;31;34133;-68
2022/07/19 09:28:40;;;;;;;2.80;0.68;;;;;;;37.36;15.92;100949.88;5587977;31;34683;-68
2022/07/19 09:32:02;;;;;;;1.52;0.60;;;;;;;38.27;15.23;100946.34;5587175;31;32861;-69
2022/07/19 09:35:05;;;;;;;8.40;1.05;;;;;;;38.33;15.64;100944.19;5586985;31;33933;-68
2022/07/19 09:38:15;;;;;;;2.33;0.80;;;;;;;39.19;14.90;100940.47;5587141;31;32462;-69
2022/07/19 09:41:19;;;;;;;1.95;0.70;;;;;;;38.34;15.11;100945.00;5586871;31;32594;-67
2022/07/19 09:44:22;;;;;;;3.25;0.70;;;;;;;37.01;16.27;100931.78;5589168;31;34194;-67
2022/07/19 09:47:51;;;;;;;1.83;0.90;;;;;;;36.56;16.71;100934.16;5590551;31;33955;-68
2022/07/19 09:50:54;;;;;;;108.68;6.07;;;;;;;36.16;17.49;100936.34;5586836;31;35086;-68
2022/07/19 09:53:58;;;;;;;2.20;0.55;;;;;;;37.56;16.11;100940.03;5589265;31;32487;-69
2022/07/19 09:57:03;;;;;;;1.35;0.80;;;;;;;38.74;14.81;100928.59;5590474;31;33943;-68
2022/07/19 10:00:17;;;;;;;1.40;0.73;;;;;;;39.47;15.15;100941.41;5589632;31;34266;-69
2022/07/19 10:03:24;;;;;;;2.40;0.60;;;;;;;38.30;15.22;100928.22;5576576;31;33414;-68
2022/07/19 10:06:30;;;;;;;1.80;0.88;;;;;;;39.09;15.50;100924.28;5589602;31;34581;-68
2022/07/19 10:09:35;;;;;;;1.52;0.70;;;;;;;38.97;14.58;100929.84;5590369;31;33959;-69
2022/07/19 10:12:41;;;;;;;0.90;0.62;;;;;;;38.87;14.85;100927.50;5589935;31;32439;-69
2022/07/19 10:15:58;;;;;;;6.82;0.75;;;;;;;39.87;14.31;100922.06;5576532;31;34801;-69
2022/07/19 10:19:31;;;;;;;2.35;0.60;;;;;;;41.43;13.48;100920.69;5590400;31;35176;-69
2022/07/19 10:22:34;;;;;;;1.73;0.70;;;;;;;41.09;12.98;100913.94;5579550;31;32970;-69
2022/07/19 10:25:46;;;;;;;1.05;0.70;;;;;;;40.58;13.49;100918.50;5590149;31;33933;-69
2022/07/19 10:29:05;;;;;;;3.33;0.60;;;;;;;40.30;13.93;100915.78;5590371;31;34107;-68
2022/07/19 10:32:13;;;;;;;5.78;0.70;;;;;;;39.79;14.22;100908.31;5589288;31;33223;-69
2022/07/19 10:35:31;;;;;;;2.05;0.70;;;;;;;41.80;12.81;100904.41;5589918;31;34109;-69
2022/07/19 10:38:34;;;;;;;1.85;0.73;;;;;;;41.10;13.86;100893.28;5589336;31;33122;-68
2022/07/19 10:41:37;;;;;;;1.52;0.60;;;;;;;42.55;12.39;100911.53;5590148;31;33839;-69
2022/07/19 10:44:55;;;;;;;5.03;0.80;;;;;;;41.05;13.40;100893.56;5590060;31;34083;-68
2022/07/19 10:48:11;;;;;;;1.58;0.73;;;;;;;41.78;12.46;100892.81;5589309;31;35626;-69
2022/07/19 10:51:35;;;;;;;1.25;0.80;;;;;;;41.31;13.01;100892.13;5589423;31;35523;-68
2022/07/19 10:54:38;;;;;;;1.02;0.73;;;;;;;39.75;14.37;100887.91;5588629;31;32859;-68
2022/07/19 10:57:40;;;;;;;7.22;1.10;;;;;;;40.81;13.78;100891.72;5576309;31;32745;-66
2022/07/19 11:00:46;;;;;;;4.03;0.95;;;;;;;40.95;13.66;100884.91;5589248;31;32619;-67
2022/07/19 11:03:51;;;;;;;1.77;0.90;;;;;;;42.52;12.62;100887.97;5589900;31;35193;-67
2022/07/19 11:07:10;;;;;;;1.58;0.80;;;;;;;42.31;12.80;100876.44;5590077;31;33906;-66
2022/07/19 11:10:25;;;;;;;2.30;0.70;;;;;;;43.74;11.71;100883.94;5589462;31;32446;-67
2022/07/19 11:13:28;;;;;;;1.75;0.90;;;;;;;44.43;11.64;100882.38;5589141;31;32951;-66
2022/07/19 11:16:31;;;;;;;2.22;1.10;;;;;;;43.11;11.83;100879.03;5589204;31;33931;-68
2022/07/19 11:19:34;;;;;;;1.83;0.80;;;;;;;44.15;11.41;100874.44;5576192;31;32891;-68
2022/07/19 11:22:41;;;;;;;2.65;0.65;;;;;;;44.80;10.80;100865.53;5588901;31;33991;-68
2022/07/19 11:25:46;;;;;;;2.03;0.77;;;;;;;45.98;10.01;100867.03;5588981;31;33699;-68
2022/07/19 11:28:50;;;;;;;2.97;0.80;;;;;;;45.57;10.51;100861.66;5576237;31;33659;-67
2022/07/19 11:31:53;;;;;;;2.78;0.75;;;;;;;46.99;9.58;100857.16;5588182;31;32700;-68
2022/07/19 11:35:02;;;;;;;3.55;0.80;;;;;;;48.23;9.58;100858.69;5588167;31;32458;-69
2022/07/19 11:38:06;;;;;;;3.20;0.90;;;;;;;47.66;9.09;100852.59;5575294;31;33245;-66
2022/07/19 11:41:13;;;;;;;1.65;0.82;;;;;;;41.20;13.10;100836.22;5589275;31;33970;-68
2022/07/19 11:44:17;;;;;;;8.20;0.95;;;;;;;44.07;11.68;100839.22;5589598;31;33978;-67
2022/07/19 11:47:20;;;;;;;1.45;0.70;;;;;;;43.08;12.00;100837.91;5589000;31;32876;-68
2022/07/19 11:50:26;;;;;;;3.12;0.68;;;;;;;41.73;12.98;100828.25;5588448;31;33716;-67
2022/07/19 11:53:33;;;;;;;1.25;0.65;;;;;;;42.69;12.58;100828.09;5589039;31;32325;-67
2022/07/19 11:56:36;;;;;;;4.65;0.80;;;;;;;45.71;10.51;100828.06;5589532;31;34649;-67
2022/07/19 11:59:39;;;;;;;3.80;1.00;;;;;;;44.51;11.08;100808.50;5588761;31;32640;-67
2022/07/19 12:03:06;;;;;;;1.40;0.80;;;;;;;45.34;10.95;100817.09;5588924;31;33209;-68
2022/07/19 12:06:09;;;;;;;3.62;0.80;;;;;;;46.41;9.97;100817.44;5589354;31;33977;-67
2022/07/19 12:09:17;;;;;;;1.80;0.80;;;;;;;45.41;10.98;100822.75;5589552;31;34177;-68
2022/07/19 12:12:21;;;;;;;1.70;0.70;;;;;;;47.23;9.51;100810.53;5589020;31;34007;-68
2022/07/19 12:15:23;;;;;;;2.83;0.82;;;;;;;46.68;10.01;100801.81;5589319;31;34010;-68
2022/07/19 12:18:47;;;;;;;2.78;1.10;;;;;;;49.39;8.60;100808.12;5589464;31;33581;-68
2022/07/19 12:21:50;;;;;;;2.65;0.82;;;;;;;46.71;9.52;100803.81;5588680;31;33845;-68
2022/07/19 12:24:53;;;;;;;1.25;0.80;;;;;;;45.86;10.17;100792.50;5589272;31;34580;-68
2022/07/19 12:28:03;;;;;;;4.55;0.90;;;;;;;45.62;10.33;100790.38;5588754;31;33308;-67
2022/07/19 12:31:06;;;;;;;3.33;1.00;;;;;;;45.55;10.11;100784.78;5588180;31;32465;-69
2022/07/19 12:34:09;;;;;;;2.30;0.73;;;;;;;47.26;9.24;100784.44;5588386;31;33304;-68
2022/07/19 12:37:25;;;;;;;1.25;0.82;;;;;;;49.03;8.72;100793.66;5589154;31;34484;-68
2022/07/19 12:40:28;;;;;;;2.00;0.95;;;;;;;45.10;10.47;100794.53;5588521;31;32455;-67
2022/07/19 12:43:31;;;;;;;1.33;1.00;;;;;;;42.60;12.50;100783.69;5589024;31;33911;-66
2022/07/19 12:46:34;;;;;;;3.00;0.93;;;;;;;42.30;12.31;100788.34;5588942;31;34014;-66
2022/07/19 12:49:45;;;;;;;1.75;0.90;;;;;;;41.53;12.82;100782.84;5588419;31;33984;-68
2022/07/19 12:52:49;;;;;;;3.03;0.90;;;;;;;43.46;11.58;100783.75;5588738;31;34051;-68
2022/07/19 12:55:52;;;;;;;4.00;1.00;;;;;;;46.41;9.75;100778.16;5588815;31;33928;-68
2022/07/19 13:02:18;;;;;;;2.05;0.88;;;;;;;48.42;9.09;100776.53;5588244;31;32591;-69
2022/07/19 13:05:22;;;;;;;2.22;0.88;;;;;;;49.46;8.10;100765.78;5587175;31;34131;-68
2022/07/19 13:08:26;;;;;;;1.50;0.80;;;;;;;48.20;9.43;100759.03;5588590;31;34237;-68
2022/07/19 13:11:32;;;;;;;2.30;1.10;;;;;;;47.47;9.31;100761.06;5587352;31;33773;-67
2022/07/19 13:14:36;;;;;;;2.03;0.80;;;;;;;48.99;8.31;100764.72;5588421;31;34009;-69
2022/07/19 13:17:39;;;;;;;1.10;0.80;;;;;;;50.63;7.58;100764.78;5562211;31;33406;-68
2022/07/19 13:20:43;;;;;;;1.27;0.80;;;;;;;50.35;7.73;100757.56;5590151;31;34673;-68
2022/07/19 13:23:46;;;;;;;1.58;0.80;;;;;;;49.63;8.06;100754.25;5590266;31;33872;-68
2022/07/19 13:26:55;;;;;;;3.67;0.90;;;;;;;49.99;7.63;100748.91;5590089;31;33397;-69
2022/07/19 13:29:58;;;;;;;3.50;1.10;;;;;;;49.79;7.83;100745.19;5589756;31;33942;-69
2022/07/19 13:33:00;;;;;;;5.62;1.17;;;;;;;51.14;7.02;100740.78;5589152;31;33702;-69
2022/07/19 13:36:03;;;;;;;4.62;0.80;;;;;;;51.90;7.16;100750.00;5590743;31;34651;-67
2022/07/19 13:39:06;;;;;;;2.45;1.00;;;;;;;50.59;7.29;100732.97;5589982;31;32461;-67
2022/07/19 13:42:09;;;;;;;5.12;0.95;;;;;;;50.61;7.54;100729.69;5590342;31;33874;-67
2022/07/19 13:45:12;;;;;;;5.12;1.10;;;;;;;47.54;8.88;100733.72;5590163;31;34650;-67
2022/07/19 13:48:15;;;;;;;1.65;1.08;;;;;;;47.87;8.74;100726.72;5589671;31;32542;-67
2022/07/19 13:51:18;;;;;;;2.12;1.00;;;;;;;48.87;8.05;100718.19;5589307;31;35231;-67
2022/07/19 13:54:20;;;;;;;2.97;0.82;;;;;;;50.76;7.26;100719.72;5589008;31;33283;-68
2022/07/19 13:57:23;;;;;;;5.05;1.25;;;;;;;46.95;9.15;100704.69;5590195;31;35200;-67
2022/07/19 14:00:26;;;;;;;3.30;0.98;;;;;;;47.46;8.90;100711.69;5589341;31;33458;-67
2022/07/19 14:03:29;;;;;;;4.62;0.98;;;;;;;50.11;7.67;100713.66;5589169;31;33389;-68
2022/07/19 14:06:32;;;;;;;7.90;1.00;;;;;;;51.30;7.54;100708.94;5590350;31;34705;-68
2022/07/19 14:09:36;;;;;;;2.35;1.00;;;;;;;51.22;7.39;100704.69;5590114;31;33912;-67
2022/07/19 14:12:46;;;;;;;3.40;1.10;;;;;;;50.78;7.48;100711.66;5589924;31;34657;-68
2022/07/19 14:16:10;;;;;;;3.30;1.10;;;;;;;51.72;6.73;100707.16;5588918;31;32802;-67
2022/07/19 14:19:13;;;;;;;5.05;1.17;;;;;;;50.14;7.67;100692.22;5589922;31;35238;-68
2022/07/19 14:22:16;;;;;;;5.40;1.00;;;;;;;49.27;8.15;100691.13;5589109;31;33432;-68
2022/07/19 14:25:20;;;;;;;5.43;1.10;;;;;;;47.52;8.99;100690.38;5589820;31;34172;-68
2022/07/19 14:28:23;;;;;;;2.67;1.30;;;;;;;44.42;11.11;100679.31;5589386;31;34728;-67